메인 페이지
METAR-TAF:

METAR-TAF

공항 :

심페로폴 국제공항

심페로폴, 러시아

위도: 45-03-08N, 경도: 033-58-31E, 고도: 195m

현재 날씨관측

예보는 23분 전, 18:30시(UTC)에 발표되었습니다.
16kt
온도 15°C
습도 94%
기압 1015 hPa
시정 10km 이상
1500m 미만 상공 구름 및 적란운 없음

METAR: URFF 251830Z 08008MPS CAVOK 15/14 Q1015 R01/090095 NOSIG

시각: 21:53 (18:53 UTC)

예보

예보는 2 시간 3분 전, 16:50시(UTC)에 발표되었습니다.
예보 대상 시간: 25일 18시부터 26일 18시까지 (UTC)
동북동12kt, 순간 최대 풍속 21kt
시정 10km 이상
고도 2000ft 상공 구름 많음
25일 2100시부터 (UTC)
동북동6kt
시정: 6000m
고도 500ft 상공 구름 조금
고도 1600ft 상공 구름 많음
고도 2000ft 상공 구름 보통, 적란운.
확률 40% :
일시적
25일 21시부터 26일 06시까지 (UTC)
시정: 0400m
고도 200ft 상공 흐림
안개
26일 0600시부터 (UTC)
동북동10kt
시정 10km 이상
고도 2000ft 상공 구름 많음, 적란운.

TAF: URFF 251650Z 2518/2618 06006G11MPS 9999 BKN020 TX26/2611Z TN14/2603Z FM252100 07003MPS 6000 FEW005 BKN016 SCT020CB PROB40 TEMPO 2521/2606 0400 FG OVC002 FM260600 06005MPS 9999 BKN020CB

4,000개 이상의 공항 관측 자료 및 예보 (METAR 및 TAF 보고).

지도상에서 검색 가능한 기상관측소가 노란 점과 빨간 점으로 표시되어 있습니다.

기상관측소 명을 보려면 표시 위로 마우스를 이동하세요.

날씨 관측과 예보를 보려면 클릭하세요.

지도 변경 : 확대하려면 엑스 표시가 있는 녹색 버튼, 축소하려면 빼기 표시가 있는 녹색 버튼, 다음 페이지의 지도를 보려면 녹색 화살표를 클릭하세요.


METAR-TAF: